METAR

METAR LDZA 201900Z 23005KT CAVOK 15/11 Q1018 NOSIG =
METAR LDSP 201900Z 35005KT CAVOK 18/15 Q1021 NOSIG=
METAR LDDU 201900Z 09006KT CAVOK 17/15 Q1022 NOSIG =
METAR LDZD 201900Z 10006KT 070V140 CAVOK 17/16 Q1021 NOSIG =
METAR LDPL 201900Z 11004KT 080V140 9999 FEW008 SCT057 18/17 Q1020 NOSIG=
METAR LDOS 201900Z 15005KT CAVOK 13/09 Q1019=
METAR LDRI 201900Z 19004KT 9999 FEW010 BKN017 19/18 Q1020=

TAF

TAF LDZA 201725Z 2018/2118 23005KT CAVOK
                 TX26/2113Z TN11/2104Z
           TEMPO 2109/2116 23012KT=
TAF LDSP 201725Z 2018/2118 VRB02KT CAVOK
                 TX25/2112Z TN15/2105Z
    PROB30 TEMPO 2112/2115 23007KT=
TAF LDDU 201725Z 2018/2118 VRB02KT CAVOK
                 TX23/2111Z TN16/2104Z
    PROB40 TEMPO 2112/2116 26007KT=
TAF LDZD 201725Z 2018/2118 12005KT CAVOK
                 TX24/2112Z TN12/2105Z
    PROB30 TEMPO 2111/2115 22008KT=
TAF LDPL 201725Z 2018/2118 13008KT 9999 FEW010 SCT020
                 TX23/2112Z TN15/2100Z
           TEMPO 2018/2112 BKN005=
TAF LDOS 201725Z 2018/2118 17005KT CAVOK
                 TX25/2112Z TN09/2105Z=
TAF LDRI 201725Z 2018/2118 12006KT 9999 SCT015 BKN030
                 TX23/2112Z TN15/2103Z
    PROB30 TEMPO 2020/2109 BKN010=
TAF AMD LDLO 201523Z 2015/2112 CNL=

SIGMET

AIRMET

Remark

Ukoliko se brzina i smjer vjetra ne mogu odrediti zbog privremenog kvara sustava/indikatora,
informacija o vjetru u METAR izvješću bit će prikazana kao "/////KT".

 

Disclaimer

 

In case of temporary system/sensor failure, wind speed and direction data will be represented as "/////KT" in METAR report.

 

If you cannot log in with your user account, please contact stjepko.jancijev@crocontrol.hr.
Specifically, the website deactivates user accounts that have not been used for more than 365 days, so they must be reactivated.
 

         

      Politika MET podataka      

 

Ukoliko se svojim korisničkim računom ne možete logirati na web stranicu, molim vas da se obratite na stjepko.jancijev@crocontrol.hr.

Naime, web stranica deaktivira korisničke račune koji nisu korišteni više od 365 dana te ih je potrebno ponovno aktivirati.